createdAt,value
2019-03-26T00:02:25.646Z,22.50
2019-03-26T00:07:31.427Z,23.00
2019-03-26T00:12:40.592Z,22.00
2019-03-26T00:17:48.426Z,20.00
2019-03-26T00:22:57.000Z,22.75
2019-03-26T00:28:01.335Z,21.67
2019-03-26T00:33:09.977Z,22.00
2019-03-26T00:38:19.184Z,18.50
2019-03-26T00:43:25.238Z,22.50
2019-03-26T00:48:31.295Z,23.00
2019-03-26T00:53:37.516Z,22.50
2019-03-26T00:58:41.852Z,22.00
2019-03-26T01:03:46.183Z,24.00
2019-03-26T01:08:52.226Z,22.00
2019-03-26T01:13:59.255Z,23.71
2019-03-26T01:19:04.528Z,22.43
2019-03-26T01:24:08.062Z,24.00
2019-03-26T01:29:14.700Z,22.62
2019-03-26T01:34:20.641Z,24.00
2019-03-26T01:39:29.322Z,22.87
2019-03-26T01:44:33.141Z,22.00
2019-03-26T01:49:37.455Z,22.00
2019-03-26T01:54:45.187Z,22.14
2019-03-26T01:59:54.519Z,22.33
2019-03-26T02:05:04.515Z,24.50
2019-03-26T02:10:08.165Z,24.67
2019-03-26T02:15:14.040Z,22.75
2019-03-26T02:20:18.555Z,22.75
2019-03-26T02:25:22.767Z,22.00
2019-03-26T02:30:31.318Z,22.00
2019-03-26T02:35:40.423Z,24.00
2019-03-26T02:40:44.687Z,24.00
2019-03-26T02:45:48.788Z,23.00
2019-03-26T02:50:57.431Z,23.00
2019-03-26T02:56:02.240Z,23.00
2019-03-26T03:01:10.463Z,23.87
2019-03-26T03:06:19.371Z,23.00
2019-03-26T03:11:28.416Z,22.75
2019-03-26T03:16:37.471Z,23.75
2019-03-26T03:21:43.403Z,22.00
2019-03-26T03:26:51.186Z,22.00
2019-03-26T03:31:56.421Z,22.00
2019-03-26T03:37:02.831Z,23.25
2019-03-26T03:42:10.564Z,21.25
2019-03-26T03:47:18.679Z,21.37
2019-03-26T03:52:23.953Z,23.00
2019-03-26T03:57:30.882Z,20.37
2019-03-26T04:02:38.887Z,21.00
2019-03-26T04:07:44.821Z,22.50
2019-03-26T04:12:49.945Z,21.25
2019-03-26T04:17:55.978Z,21.62
2019-03-26T04:23:01.866Z,22.00
2019-03-26T04:28:09.533Z,21.00
2019-03-26T04:33:19.514Z,19.91
2019-03-26T04:38:24.428Z,23.00
2019-03-26T04:43:33.046Z,22.25
2019-03-26T04:48:41.551Z,20.00
2019-03-26T04:53:48.342Z,22.00
2019-03-26T04:58:55.978Z,19.87
2019-03-26T05:04:05.420Z,22.45
2019-03-26T05:09:14.020Z,21.73
2019-03-26T05:14:23.004Z,23.12
2019-03-26T05:19:27.958Z,21.75
2019-03-26T05:24:36.464Z,24.63
2019-03-26T05:29:42.451Z,21.50
2019-03-26T05:34:47.422Z,22.00
2019-03-26T05:39:54.132Z,20.00
2019-03-26T05:45:04.806Z,20.37
2019-03-26T05:50:09.398Z,21.00
2019-03-26T05:55:13.365Z,21.50
2019-03-26T06:00:22.165Z,20.33
2019-03-26T06:05:26.941Z,20.00
2019-03-26T06:10:30.575Z,16.67
2019-03-26T06:15:37.901Z,24.25
2019-03-26T06:20:42.879Z,27.25
2019-03-26T06:25:51.460Z,24.00
2019-03-26T06:30:55.633Z,22.00
2019-03-26T06:35:59.727Z,23.00
2019-03-26T06:41:08.307Z,20.00
2019-03-26T06:46:13.359Z,22.50
2019-03-26T06:51:17.623Z,30.00
2019-03-26T06:56:26.149Z,21.50
2019-03-26T07:01:34.071Z,21.87
2019-03-26T07:06:41.606Z,19.75
2019-03-26T07:11:46.794Z,23.00
2019-03-26T07:16:52.721Z,21.25
2019-03-26T07:22:01.914Z,23.00
2019-03-26T07:27:07.933Z,21.37
2019-03-26T07:32:15.672Z,24.00
2019-03-26T07:37:20.715Z,28.00
2019-03-26T07:42:29.202Z,26.00
2019-03-26T07:47:35.131Z,16.25
2019-03-26T07:52:44.395Z,24.25
2019-03-26T07:57:50.632Z,19.75
2019-03-26T08:02:59.647Z,18.12
2019-03-26T08:08:05.494Z,18.50
2019-03-26T08:13:12.236Z,15.63
2019-03-26T08:18:17.925Z,13.57
2019-03-26T08:23:23.595Z,14.25
2019-03-26T08:28:32.790Z,20.37
2019-03-26T08:33:37.640Z,16.50
2019-03-26T08:38:41.863Z,15.00
2019-03-26T08:43:46.019Z,14.00
2019-03-26T08:48:54.403Z,9.86
2019-03-26T08:54:03.114Z,10.86
2019-03-26T08:59:09.879Z,9.86
2019-03-26T09:04:13.934Z,10.00
2019-03-26T09:09:18.267Z,11.57
2019-03-26T09:14:24.952Z,8.14
2019-03-26T09:19:29.167Z,7.40
2019-03-26T09:24:36.578Z,5.33
2019-03-26T09:29:41.463Z,8.29
2019-03-26T09:34:48.300Z,9.71
2019-03-26T09:39:55.031Z,9.71
2019-03-26T09:45:00.368Z,10.29
2019-03-26T09:50:06.952Z,12.29
2019-03-26T09:55:13.051Z,11.71
2019-03-26T10:00:19.642Z,10.29
2019-03-26T10:05:23.598Z,13.50
2019-03-26T10:10:29.371Z,11.00
2019-03-26T10:15:35.085Z,8.57
2019-03-26T10:20:40.976Z,12.71
2019-03-26T10:25:45.935Z,16.00
2019-03-26T10:30:50.140Z,18.00
2019-03-26T10:35:53.594Z,18.00
2019-03-26T10:40:57.711Z,20.00
2019-03-26T10:46:02.143Z,18.67
2019-03-26T10:51:07.783Z,22.13
2019-03-26T10:56:14.509Z,16.37
2019-03-26T11:01:20.266Z,13.43
2019-03-26T11:06:26.816Z,14.00
2019-03-26T11:11:32.892Z,13.71
2019-03-26T11:16:36.994Z,13.33
2019-03-26T11:21:40.440Z,12.25
2019-03-26T11:26:46.402Z,12.00
2019-03-26T11:31:52.319Z,14.29
2019-03-26T11:37:00.002Z,17.75
2019-03-26T11:42:08.341Z,13.62
2019-03-26T11:47:17.568Z,15.88
2019-03-26T11:52:23.538Z,13.86
2019-03-26T11:57:28.619Z,14.71
2019-03-26T12:02:34.578Z,13.43
2019-03-26T12:07:42.818Z,12.86
2019-03-26T12:12:45.526Z,13.00
2019-03-26T12:17:51.803Z,12.00
2019-03-26T12:22:54.660Z,12.00
2019-03-26T12:27:57.514Z,27.67
2019-03-26T12:33:02.058Z,11.17
2019-03-26T12:38:06.943Z,14.67
2019-03-26T12:43:13.383Z,11.29
2019-03-26T12:48:20.120Z,13.00
2019-03-26T12:53:26.823Z,12.00
2019-03-26T12:58:36.060Z,10.00
2019-03-26T13:03:37.871Z,9.00
2019-03-26T13:08:41.334Z,15.25
2019-03-26T13:13:47.423Z,12.29
2019-03-26T13:18:51.799Z,8.50
2019-03-26T13:23:56.937Z,11.33
2019-03-26T13:29:02.953Z,9.00
2019-03-26T13:34:08.267Z,6.17
2019-03-26T13:39:12.502Z,9.00
2019-03-26T13:44:18.438Z,10.86
2019-03-26T13:49:21.876Z,10.33
2019-03-26T13:54:30.492Z,9.43
2019-03-26T13:59:39.788Z,11.18
2019-03-26T14:04:44.954Z,9.43
2019-03-26T14:09:49.387Z,14.00
2019-03-26T14:14:55.991Z,9.29
2019-03-26T14:19:59.340Z,7.25
2019-03-26T14:25:05.388Z,8.57
2019-03-26T14:30:12.374Z,19.43
2019-03-26T14:35:18.374Z,8.17
2019-03-26T14:40:25.915Z,21.00
2019-03-26T14:45:30.399Z,27.00
2019-03-26T14:50:36.429Z,13.14
2019-03-26T14:55:41.593Z,12.71
2019-03-26T15:00:46.711Z,7.17
2019-03-26T15:05:51.878Z,9.00
2019-03-26T15:11:07.588Z,12.00
2019-03-26T15:16:05.416Z,8.00
2019-03-26T15:21:13.938Z,17.00
2019-03-26T15:26:19.833Z,7.00
2019-03-26T15:31:25.659Z,7.17
2019-03-26T15:36:31.339Z,11.86
2019-03-26T15:41:34.764Z,22.25
2019-03-26T15:46:40.883Z,13.71
2019-03-26T15:51:46.083Z,14.71
2019-03-26T15:56:51.366Z,13.57
2019-03-26T16:01:54.830Z,13.00
2019-03-26T16:07:02.502Z,15.57
2019-03-26T16:12:08.902Z,20.12
2019-03-26T16:17:15.539Z,16.86
2019-03-26T16:22:20.627Z,16.71
2019-03-26T16:27:26.979Z,18.00
2019-03-26T16:32:31.079Z,10.17
2019-03-26T16:37:36.636Z,8.50
2019-03-26T16:42:45.462Z,22.25
2019-03-26T16:47:53.970Z,12.29
2019-03-26T16:53:00.642Z,20.25
2019-03-26T16:58:04.489Z,11.60
2019-03-26T17:03:11.955Z,17.12
2019-03-26T17:08:18.127Z,15.67
2019-03-26T17:13:22.642Z,15.00
2019-03-26T17:18:28.309Z,13.25
2019-03-26T17:23:34.258Z,13.14
2019-03-26T17:28:39.565Z,9.00
2019-03-26T17:33:44.641Z,7.00
2019-03-26T17:38:48.043Z,12.75
2019-03-26T17:43:53.070Z,16.86
2019-03-26T17:48:57.194Z,15.00
2019-03-26T17:54:08.666Z,16.73
2019-03-26T17:59:13.374Z,14.14
2019-03-26T18:04:19.838Z,14.44
2019-03-26T18:09:23.980Z,14.00
2019-03-26T18:14:29.302Z,14.00
2019-03-26T18:19:36.756Z,17.30
2019-03-26T18:24:54.512Z,15.04
2019-03-26T18:30:00.410Z,12.00
2019-03-26T18:35:06.411Z,13.00
2019-03-26T18:40:12.591Z,25.43
2019-03-26T18:45:22.042Z,17.25
2019-03-26T18:50:25.859Z,14.50
2019-03-26T18:55:30.795Z,17.00
2019-03-26T19:00:36.412Z,11.29
2019-03-26T19:05:41.658Z,12.71
2019-03-26T19:10:49.894Z,18.10
2019-03-26T19:15:53.769Z,18.20
2019-03-26T19:21:06.188Z,13.00
2019-03-26T19:26:12.086Z,13.13
2019-03-26T19:31:15.643Z,12.00
2019-03-26T19:36:20.417Z,21.71
2019-03-26T19:41:25.347Z,17.43
2019-03-26T19:46:46.593Z,19.44
2019-03-26T19:51:54.624Z,20.67
2019-03-26T19:56:59.994Z,25.14
2019-03-26T20:02:18.222Z,17.13
2019-03-26T20:10:02.097Z,23.64
2019-03-26T20:15:17.591Z,19.47
2019-03-26T20:20:24.635Z,11.67
2019-03-26T20:25:57.978Z,18.40
2019-03-26T20:31:12.140Z,21.28
2019-03-26T20:36:19.982Z,32.38
2019-03-26T20:41:30.572Z,29.64
2019-03-26T20:46:37.989Z,16.67
2019-03-26T20:51:42.053Z,15.00
2019-03-26T20:56:46.505Z,18.50
2019-03-26T21:01:56.312Z,23.46
2019-03-26T21:07:01.882Z,19.60
2019-03-26T21:12:07.118Z,15.29
2019-03-26T21:17:14.731Z,15.18
2019-03-26T21:22:26.088Z,14.50
2019-03-26T21:27:43.569Z,15.26
2019-03-26T21:32:49.953Z,32.22
2019-03-26T21:37:55.759Z,19.00
2019-03-26T21:43:25.332Z,13.84
2019-03-26T21:48:28.959Z,13.25
2019-03-26T21:56:48.209Z,18.31
2019-03-26T22:02:45.118Z,17.00
2019-03-26T22:17:03.156Z,11.50
2019-03-26T22:22:21.246Z,19.00
2019-03-26T22:27:28.142Z,14.83
2019-03-26T22:32:48.916Z,16.28
2019-03-26T22:37:53.453Z,12.60
2019-03-26T22:43:04.115Z,23.44
2019-03-26T22:48:08.185Z,10.17
2019-03-26T22:53:21.771Z,31.23
2019-03-26T23:03:36.131Z,17.83
2019-03-26T23:08:39.315Z,12.00
2019-03-26T23:13:52.516Z,16.00
2019-03-26T23:19:01.754Z,12.36
2019-03-26T23:24:05.291Z,9.20
2019-03-26T23:29:08.796Z,23.00
2019-03-26T23:34:20.812Z,12.18
2019-03-26T23:39:27.089Z,12.14
2019-03-26T23:44:31.240Z,9.33
2019-03-26T23:49:39.596Z,11.57
2019-03-26T23:54:46.433Z,9.57
2019-03-26T23:59:51.222Z,9.71
